sensor_id;sensor_type;location;lat;lon;timestamp;temperature;humidity
77523;SHT31;66637;-29.628;-49.938;2023-04-15T00:02:13;19.27;84.17
77523;SHT31;66637;-29.628;-49.938;2023-04-15T00:04:46;19.32;84.60
77523;SHT31;66637;-29.628;-49.938;2023-04-15T00:07:17;19.34;84.09
77523;SHT31;66637;-29.628;-49.938;2023-04-15T00:09:48;19.39;84.20
77523;SHT31;66637;-29.628;-49.938;2023-04-15T00:15:16;19.45;82.97
77523;SHT31;66637;-29.628;-49.938;2023-04-15T00:17:49;19.47;83.12
77523;SHT31;66637;-29.628;-49.938;2023-04-15T00:20:21;19.54;82.94
77523;SHT31;66637;-29.628;-49.938;2023-04-15T00:22:55;19.64;81.88
77523;SHT31;66637;-29.628;-49.938;2023-04-15T00:25:26;19.62;80.37
77523;SHT31;66637;-29.628;-49.938;2023-04-15T00:27:58;19.63;80.15
77523;SHT31;66637;-29.628;-49.938;2023-04-15T00:30:29;19.66;80.37
77523;SHT31;66637;-29.628;-49.938;2023-04-15T00:33:02;19.67;79.83
77523;SHT31;66637;-29.628;-49.938;2023-04-15T00:35:34;19.66;80.09
77523;SHT31;66637;-29.628;-49.938;2023-04-15T00:38:07;19.75;79.53
77523;SHT31;66637;-29.628;-49.938;2023-04-15T00:40:38;19.87;81.18
77523;SHT31;66637;-29.628;-49.938;2023-04-15T00:43:11;19.71;80.60
77523;SHT31;66637;-29.628;-49.938;2023-04-15T00:45:41;19.64;79.97
77523;SHT31;66637;-29.628;-49.938;2023-04-15T00:48:12;19.77;80.02
77523;SHT31;66637;-29.628;-49.938;2023-04-15T00:50:45;19.83;80.59
77523;SHT31;66637;-29.628;-49.938;2023-04-15T00:53:16;19.81;78.49
77523;SHT31;66637;-29.628;-49.938;2023-04-15T00:55:48;19.88;78.84
77523;SHT31;66637;-29.628;-49.938;2023-04-15T00:58:21;19.87;79.78
77523;SHT31;66637;-29.628;-49.938;2023-04-15T01:00:54;19.75;79.36
77523;SHT31;66637;-29.628;-49.938;2023-04-15T01:03:27;19.64;79.53
77523;SHT31;66637;-29.628;-49.938;2023-04-15T01:05:59;19.70;79.95
77523;SHT31;66637;-29.628;-49.938;2023-04-15T01:08:31;19.75;79.97
77523;SHT31;66637;-29.628;-49.938;2023-04-15T01:11:03;19.81;80.14
77523;SHT31;66637;-29.628;-49.938;2023-04-15T01:13:35;19.85;77.97
77523;SHT31;66637;-29.628;-49.938;2023-04-15T01:16:07;19.90;78.48
77523;SHT31;66637;-29.628;-49.938;2023-04-15T01:18:38;20.04;78.53
77523;SHT31;66637;-29.628;-49.938;2023-04-15T01:21:09;19.97;77.08
77523;SHT31;66637;-29.628;-49.938;2023-04-15T01:23:40;20.05;78.62
77523;SHT31;66637;-29.628;-49.938;2023-04-15T01:26:12;20.03;78.99
77523;SHT31;66637;-29.628;-49.938;2023-04-15T01:28:42;20.01;81.61
77523;SHT31;66637;-29.628;-49.938;2023-04-15T01:31:14;19.85;80.12
77523;SHT31;66637;-29.628;-49.938;2023-04-15T01:33:45;19.66;80.86
77523;SHT31;66637;-29.628;-49.938;2023-04-15T01:36:18;19.49;82.12
77523;SHT31;66637;-29.628;-49.938;2023-04-15T01:38:53;19.46;81.57
77523;SHT31;66637;-29.628;-49.938;2023-04-15T01:41:28;19.52;82.74
77523;SHT31;66637;-29.628;-49.938;2023-04-15T01:43:58;19.42;82.20
77523;SHT31;66637;-29.628;-49.938;2023-04-15T01:46:29;19.42;82.02
77523;SHT31;66637;-29.628;-49.938;2023-04-15T01:49:00;19.36;83.22
77523;SHT31;66637;-29.628;-49.938;2023-04-15T01:51:32;19.30;84.04
77523;SHT31;66637;-29.628;-49.938;2023-04-15T01:54:02;19.29;82.18
77523;SHT31;66637;-29.628;-49.938;2023-04-15T01:56:34;19.22;81.77
77523;SHT31;66637;-29.628;-49.938;2023-04-15T01:59:04;19.09;82.42
77523;SHT31;66637;-29.628;-49.938;2023-04-15T02:01:36;19.19;82.76
77523;SHT31;66637;-29.628;-49.938;2023-04-15T02:04:06;19.18;83.53
77523;SHT31;66637;-29.628;-49.938;2023-04-15T02:06:44;19.29;83.39
77523;SHT31;66637;-29.628;-49.938;2023-04-15T02:09:15;19.30;82.46
77523;SHT31;66637;-29.628;-49.938;2023-04-15T02:11:47;19.37;81.48
77523;SHT31;66637;-29.628;-49.938;2023-04-15T02:14:18;19.40;82.45
77523;SHT31;66637;-29.628;-49.938;2023-04-15T02:16:51;19.39;83.00
77523;SHT31;66637;-29.628;-49.938;2023-04-15T02:19:22;19.36;82.68
77523;SHT31;66637;-29.628;-49.938;2023-04-15T02:21:55;19.39;82.72
77523;SHT31;66637;-29.628;-49.938;2023-04-15T02:24:28;19.43;82.40
77523;SHT31;66637;-29.628;-49.938;2023-04-15T02:26:59;19.49;82.06
77523;SHT31;66637;-29.628;-49.938;2023-04-15T02:29:31;19.53;81.43
77523;SHT31;66637;-29.628;-49.938;2023-04-15T02:32:01;19.64;81.41
77523;SHT31;66637;-29.628;-49.938;2023-04-15T02:34:32;19.64;81.10
77523;SHT31;66637;-29.628;-49.938;2023-04-15T02:37:04;19.73;81.20
77523;SHT31;66637;-29.628;-49.938;2023-04-15T02:39:36;19.69;79.82
77523;SHT31;66637;-29.628;-49.938;2023-04-15T02:42:06;19.73;79.58
77523;SHT31;66637;-29.628;-49.938;2023-04-15T02:44:37;19.81;79.31
77523;SHT31;66637;-29.628;-49.938;2023-04-15T02:47:18;19.83;79.19
77523;SHT31;66637;-29.628;-49.938;2023-04-15T02:49:50;19.88;79.25
77523;SHT31;66637;-29.628;-49.938;2023-04-15T02:52:20;19.84;79.77
77523;SHT31;66637;-29.628;-49.938;2023-04-15T02:54:51;19.81;80.72
77523;SHT31;66637;-29.628;-49.938;2023-04-15T02:57:27;19.81;80.88
77523;SHT31;66637;-29.628;-49.938;2023-04-15T03:00:05;19.80;81.08
77523;SHT31;66637;-29.628;-49.938;2023-04-15T03:02:43;19.74;80.70
77523;SHT31;66637;-29.628;-49.938;2023-04-15T03:05:17;19.77;80.56
77523;SHT31;66637;-29.628;-49.938;2023-04-15T03:07:50;19.73;80.08
77523;SHT31;66637;-29.628;-49.938;2023-04-15T03:10:23;19.75;80.22
77523;SHT31;66637;-29.628;-49.938;2023-04-15T03:12:55;19.75;80.11
77523;SHT31;66637;-29.628;-49.938;2023-04-15T03:15:27;19.77;80.45
77523;SHT31;66637;-29.628;-49.938;2023-04-15T03:17:58;19.78;80.49
77523;SHT31;66637;-29.628;-49.938;2023-04-15T03:20:30;19.81;80.86
77523;SHT31;66637;-29.628;-49.938;2023-04-15T03:23:03;19.83;79.92
77523;SHT31;66637;-29.628;-49.938;2023-04-15T03:25:35;19.85;79.81
77523;SHT31;66637;-29.628;-49.938;2023-04-15T03:28:07;19.91;79.32
77523;SHT31;66637;-29.628;-49.938;2023-04-15T03:30:38;19.88;79.47
77523;SHT31;66637;-29.628;-49.938;2023-04-15T03:33:09;19.87;79.33
77523;SHT31;66637;-29.628;-49.938;2023-04-15T03:35:39;19.85;78.76
77523;SHT31;66637;-29.628;-49.938;2023-04-15T03:38:10;19.87;79.10
77523;SHT31;66637;-29.628;-49.938;2023-04-15T03:40:40;19.90;78.57
77523;SHT31;66637;-29.628;-49.938;2023-04-15T03:43:11;19.95;77.73
77523;SHT31;66637;-29.628;-49.938;2023-04-15T03:45:42;20.03;77.66
77523;SHT31;66637;-29.628;-49.938;2023-04-15T03:48:12;20.04;76.68
77523;SHT31;66637;-29.628;-49.938;2023-04-15T03:50:45;20.07;76.52
77523;SHT31;66637;-29.628;-49.938;2023-04-15T03:53:18;20.15;76.99
77523;SHT31;66637;-29.628;-49.938;2023-04-15T03:55:50;20.21;76.97
77523;SHT31;66637;-29.628;-49.938;2023-04-15T03:58:21;20.25;76.71
77523;SHT31;66637;-29.628;-49.938;2023-04-15T04:00:51;20.31;76.29
77523;SHT31;66637;-29.628;-49.938;2023-04-15T04:03:22;20.36;76.68
77523;SHT31;66637;-29.628;-49.938;2023-04-15T04:05:52;20.35;76.71
77523;SHT31;66637;-29.628;-49.938;2023-04-15T04:08:23;20.17;78.17
77523;SHT31;66637;-29.628;-49.938;2023-04-15T04:10:54;19.83;79.79
77523;SHT31;66637;-29.628;-49.938;2023-04-15T04:13:25;19.70;80.58
77523;SHT31;66637;-29.628;-49.938;2023-04-15T04:15:56;19.66;81.13
77523;SHT31;66637;-29.628;-49.938;2023-04-15T04:18:26;19.57;81.75
77523;SHT31;66637;-29.628;-49.938;2023-04-15T04:20:57;19.57;82.02
77523;SHT31;66637;-29.628;-49.938;2023-04-15T04:23:28;19.53;82.09
77523;SHT31;66637;-29.628;-49.938;2023-04-15T04:25:59;19.59;82.10
77523;SHT31;66637;-29.628;-49.938;2023-04-15T04:28:30;19.53;82.36
77523;SHT31;66637;-29.628;-49.938;2023-04-15T04:31:00;19.53;82.47
77523;SHT31;66637;-29.628;-49.938;2023-04-15T04:33:35;19.47;82.83
77523;SHT31;66637;-29.628;-49.938;2023-04-15T04:36:15;19.46;82.74
77523;SHT31;66637;-29.628;-49.938;2023-04-15T04:38:46;19.46;82.72
77523;SHT31;66637;-29.628;-49.938;2023-04-15T04:41:18;19.45;82.61
77523;SHT31;66637;-29.628;-49.938;2023-04-15T04:43:50;19.50;82.67
77523;SHT31;66637;-29.628;-49.938;2023-04-15T04:46:21;19.43;82.55
77523;SHT31;66637;-29.628;-49.938;2023-04-15T04:48:52;19.43;82.70
77523;SHT31;66637;-29.628;-49.938;2023-04-15T04:51:23;19.43;82.80
77523;SHT31;66637;-29.628;-49.938;2023-04-15T04:53:53;19.47;82.86
77523;SHT31;66637;-29.628;-49.938;2023-04-15T04:56:23;19.45;83.00
77523;SHT31;66637;-29.628;-49.938;2023-04-15T04:58:54;19.45;83.06
77523;SHT31;66637;-29.628;-49.938;2023-04-15T05:01:25;19.49;83.04
77523;SHT31;66637;-29.628;-49.938;2023-04-15T05:03:57;19.52;83.21
77523;SHT31;66637;-29.628;-49.938;2023-04-15T05:06:27;19.49;83.28
77523;SHT31;66637;-29.628;-49.938;2023-04-15T05:08:59;19.47;83.29
77523;SHT31;66637;-29.628;-49.938;2023-04-15T05:11:31;19.53;83.49
77523;SHT31;66637;-29.628;-49.938;2023-04-15T05:14:02;19.52;83.32
77523;SHT31;66637;-29.628;-49.938;2023-04-15T05:16:33;19.50;83.35
77523;SHT31;66637;-29.628;-49.938;2023-04-15T05:19:05;19.52;83.64
77523;SHT31;66637;-29.628;-49.938;2023-04-15T05:21:37;19.52;83.50
77523;SHT31;66637;-29.628;-49.938;2023-04-15T05:24:07;19.54;83.51
77523;SHT31;66637;-29.628;-49.938;2023-04-15T05:26:38;19.50;83.60
77523;SHT31;66637;-29.628;-49.938;2023-04-15T05:29:14;19.52;83.64
77523;SHT31;66637;-29.628;-49.938;2023-04-15T05:31:45;19.49;83.59
77523;SHT31;66637;-29.628;-49.938;2023-04-15T05:34:16;19.47;83.70
77523;SHT31;66637;-29.628;-49.938;2023-04-15T05:36:48;19.50;83.62
77523;SHT31;66637;-29.628;-49.938;2023-04-15T05:39:21;19.49;83.67
77523;SHT31;66637;-29.628;-49.938;2023-04-15T05:41:53;19.53;83.55
77523;SHT31;66637;-29.628;-49.938;2023-04-15T05:44:23;19.49;83.65
77523;SHT31;66637;-29.628;-49.938;2023-04-15T05:46:54;19.50;83.75
77523;SHT31;66637;-29.628;-49.938;2023-04-15T05:49:25;19.50;83.77
77523;SHT31;66637;-29.628;-49.938;2023-04-15T05:51:57;19.54;83.68
77523;SHT31;66637;-29.628;-49.938;2023-04-15T05:54:28;19.53;83.70
77523;SHT31;66637;-29.628;-49.938;2023-04-15T05:56:59;19.54;83.88
77523;SHT31;66637;-29.628;-49.938;2023-04-15T05:59:29;19.53;83.79
77523;SHT31;66637;-29.628;-49.938;2023-04-15T06:02:02;19.50;83.76
77523;SHT31;66637;-29.628;-49.938;2023-04-15T06:04:33;19.47;83.91
77523;SHT31;66637;-29.628;-49.938;2023-04-15T06:07:03;19.52;83.74
77523;SHT31;66637;-29.628;-49.938;2023-04-15T06:09:34;19.52;83.66
77523;SHT31;66637;-29.628;-49.938;2023-04-15T06:12:04;19.49;83.68
77523;SHT31;66637;-29.628;-49.938;2023-04-15T06:14:41;19.47;83.80
77523;SHT31;66637;-29.628;-49.938;2023-04-15T06:17:11;19.45;83.76
77523;SHT31;66637;-29.628;-49.938;2023-04-15T06:19:47;19.46;83.91
77523;SHT31;66637;-29.628;-49.938;2023-04-15T06:22:21;19.43;83.84
77523;SHT31;66637;-29.628;-49.938;2023-04-15T06:24:56;19.43;83.75
77523;SHT31;66637;-29.628;-49.938;2023-04-15T06:27:27;19.34;83.73
77523;SHT31;66637;-29.628;-49.938;2023-04-15T06:29:58;19.27;83.88
77523;SHT31;66637;-29.628;-49.938;2023-04-15T06:32:31;19.20;84.10
77523;SHT31;66637;-29.628;-49.938;2023-04-15T06:35:02;19.13;84.31
77523;SHT31;66637;-29.628;-49.938;2023-04-15T06:37:33;19.02;84.57
77523;SHT31;66637;-29.628;-49.938;2023-04-15T06:40:03;19.05;84.64
77523;SHT31;66637;-29.628;-49.938;2023-04-15T06:42:34;19.19;84.49
77523;SHT31;66637;-29.628;-49.938;2023-04-15T06:45:06;19.22;84.28
77523;SHT31;66637;-29.628;-49.938;2023-04-15T06:47:37;19.20;84.28
77523;SHT31;66637;-29.628;-49.938;2023-04-15T06:50:08;19.20;84.25
77523;SHT31;66637;-29.628;-49.938;2023-04-15T06:52:41;19.26;84.09
77523;SHT31;66637;-29.628;-49.938;2023-04-15T06:55:11;19.26;84.12
77523;SHT31;66637;-29.628;-49.938;2023-04-15T06:57:41;19.26;83.93
77523;SHT31;66637;-29.628;-49.938;2023-04-15T07:00:13;19.32;83.95
77523;SHT31;66637;-29.628;-49.938;2023-04-15T07:02:43;19.32;83.76
77523;SHT31;66637;-29.628;-49.938;2023-04-15T07:05:14;19.34;83.71
77523;SHT31;66637;-29.628;-49.938;2023-04-15T07:07:44;19.30;83.72
77523;SHT31;66637;-29.628;-49.938;2023-04-15T07:10:15;19.30;83.74
77523;SHT31;66637;-29.628;-49.938;2023-04-15T07:12:46;19.30;83.60
77523;SHT31;66637;-29.628;-49.938;2023-04-15T07:15:17;19.32;83.46
77523;SHT31;66637;-29.628;-49.938;2023-04-15T07:17:47;19.27;83.44
77523;SHT31;66637;-29.628;-49.938;2023-04-15T07:20:18;19.30;83.45
77523;SHT31;66637;-29.628;-49.938;2023-04-15T07:22:48;19.39;83.35
77523;SHT31;66637;-29.628;-49.938;2023-04-15T07:25:18;19.34;83.19
77523;SHT31;66637;-29.628;-49.938;2023-04-15T07:27:49;19.36;83.21
77523;SHT31;66637;-29.628;-49.938;2023-04-15T07:30:20;19.34;83.12
77523;SHT31;66637;-29.628;-49.938;2023-04-15T07:32:51;19.33;83.19
77523;SHT31;66637;-29.628;-49.938;2023-04-15T07:35:21;19.27;83.15
77523;SHT31;66637;-29.628;-49.938;2023-04-15T07:37:52;19.32;83.06
77523;SHT31;66637;-29.628;-49.938;2023-04-15T07:40:22;19.22;83.00
77523;SHT31;66637;-29.628;-49.938;2023-04-15T07:42:52;19.20;83.08
77523;SHT31;66637;-29.628;-49.938;2023-04-15T07:45:24;19.22;83.06
77523;SHT31;66637;-29.628;-49.938;2023-04-15T07:47:56;19.22;83.12
77523;SHT31;66637;-29.628;-49.938;2023-04-15T07:50:27;19.22;82.93
77523;SHT31;66637;-29.628;-49.938;2023-04-15T07:52:58;19.19;82.91
77523;SHT31;66637;-29.628;-49.938;2023-04-15T07:55:29;19.20;82.76
77523;SHT31;66637;-29.628;-49.938;2023-04-15T07:57:59;19.18;82.72
77523;SHT31;66637;-29.628;-49.938;2023-04-15T08:00:29;19.19;82.67
77523;SHT31;66637;-29.628;-49.938;2023-04-15T08:03:01;19.20;82.78
77523;SHT31;66637;-29.628;-49.938;2023-04-15T08:05:33;19.16;82.77
77523;SHT31;66637;-29.628;-49.938;2023-04-15T08:08:04;19.20;82.82
77523;SHT31;66637;-29.628;-49.938;2023-04-15T08:10:35;19.18;82.80
77523;SHT31;66637;-29.628;-49.938;2023-04-15T08:13:06;19.20;82.67
77523;SHT31;66637;-29.628;-49.938;2023-04-15T08:15:37;19.18;82.64
77523;SHT31;66637;-29.628;-49.938;2023-04-15T08:18:08;19.15;82.60
77523;SHT31;66637;-29.628;-49.938;2023-04-15T08:20:40;19.22;82.58
77523;SHT31;66637;-29.628;-49.938;2023-04-15T08:23:11;19.20;82.57
77523;SHT31;66637;-29.628;-49.938;2023-04-15T08:25:42;19.22;82.44
77523;SHT31;66637;-29.628;-49.938;2023-04-15T08:28:12;19.20;82.37
77523;SHT31;66637;-29.628;-49.938;2023-04-15T08:30:42;19.26;82.21
77523;SHT31;66637;-29.628;-49.938;2023-04-15T08:33:12;19.23;82.15
77523;SHT31;66637;-29.628;-49.938;2023-04-15T08:35:44;19.19;82.20
77523;SHT31;66637;-29.628;-49.938;2023-04-15T08:38:14;19.19;82.31
77523;SHT31;66637;-29.628;-49.938;2023-04-15T08:40:45;19.20;82.46
77523;SHT31;66637;-29.628;-49.938;2023-04-15T08:43:26;19.18;82.65
77523;SHT31;66637;-29.628;-49.938;2023-04-15T08:45:58;19.19;82.62
77523;SHT31;66637;-29.628;-49.938;2023-04-15T08:48:37;19.23;82.60
77523;SHT31;66637;-29.628;-49.938;2023-04-15T08:51:09;19.30;82.30
77523;SHT31;66637;-29.628;-49.938;2023-04-15T08:53:39;19.33;82.28
77523;SHT31;66637;-29.628;-49.938;2023-04-15T08:56:11;19.36;82.02
77523;SHT31;66637;-29.628;-49.938;2023-04-15T08:58:44;19.34;82.03
77523;SHT31;66637;-29.628;-49.938;2023-04-15T09:01:15;19.39;81.96
77523;SHT31;66637;-29.628;-49.938;2023-04-15T09:03:48;19.34;81.96
77523;SHT31;66637;-29.628;-49.938;2023-04-15T09:06:20;19.36;81.88
77523;SHT31;66637;-29.628;-49.938;2023-04-15T09:08:52;19.30;81.76
77523;SHT31;66637;-29.628;-49.938;2023-04-15T09:11:23;19.23;81.86
77523;SHT31;66637;-29.628;-49.938;2023-04-15T09:13:53;19.19;81.81
77523;SHT31;66637;-29.628;-49.938;2023-04-15T09:16:23;19.20;81.75
77523;SHT31;66637;-29.628;-49.938;2023-04-15T09:18:55;19.20;81.72
77523;SHT31;66637;-29.628;-49.938;2023-04-15T09:21:26;19.18;81.73
77523;SHT31;66637;-29.628;-49.938;2023-04-15T09:23:59;19.15;81.76
77523;SHT31;66637;-29.628;-49.938;2023-04-15T09:26:35;19.13;81.74
77523;SHT31;66637;-29.628;-49.938;2023-04-15T09:29:08;19.12;81.62
77523;SHT31;66637;-29.628;-49.938;2023-04-15T09:31:40;19.09;81.70
77523;SHT31;66637;-29.628;-49.938;2023-04-15T09:34:12;19.12;81.62
77523;SHT31;66637;-29.628;-49.938;2023-04-15T09:39:18;19.05;81.53
77523;SHT31;66637;-29.628;-49.938;2023-04-15T09:42:06;19.08;81.70
77523;SHT31;66637;-29.628;-49.938;2023-04-15T09:44:36;18.99;81.65
77523;SHT31;66637;-29.628;-49.938;2023-04-15T09:47:07;18.98;81.61
77523;SHT31;66637;-29.628;-49.938;2023-04-15T09:49:54;19.05;81.77
77523;SHT31;66637;-29.628;-49.938;2023-04-15T09:52:25;18.98;81.62
77523;SHT31;66637;-29.628;-49.938;2023-04-15T09:54:58;19.00;81.62
77523;SHT31;66637;-29.628;-49.938;2023-04-15T09:57:37;19.05;81.69
77523;SHT31;66637;-29.628;-49.938;2023-04-15T10:00:10;19.02;81.59
77523;SHT31;66637;-29.628;-49.938;2023-04-15T10:02:41;19.05;81.51
77523;SHT31;66637;-29.628;-49.938;2023-04-15T10:05:14;19.12;81.43
77523;SHT31;66637;-29.628;-49.938;2023-04-15T10:07:46;19.16;81.12
77523;SHT31;66637;-29.628;-49.938;2023-04-15T10:10:18;19.20;81.05
77523;SHT31;66637;-29.628;-49.938;2023-04-15T10:12:50;19.22;81.17
77523;SHT31;66637;-29.628;-49.938;2023-04-15T10:15:22;19.27;81.07
77523;SHT31;66637;-29.628;-49.938;2023-04-15T10:17:57;19.29;80.95
77523;SHT31;66637;-29.628;-49.938;2023-04-15T10:20:30;19.37;80.79
77523;SHT31;66637;-29.628;-49.938;2023-04-15T10:23:02;19.42;80.69
77523;SHT31;66637;-29.628;-49.938;2023-04-15T10:25:37;19.45;80.69
77523;SHT31;66637;-29.628;-49.938;2023-04-15T10:28:07;19.54;80.45
77523;SHT31;66637;-29.628;-49.938;2023-04-15T10:30:38;19.63;80.40
77523;SHT31;66637;-29.628;-49.938;2023-04-15T10:33:09;19.75;80.11
77523;SHT31;66637;-29.628;-49.938;2023-04-15T10:35:40;19.81;79.96
77523;SHT31;66637;-29.628;-49.938;2023-04-15T10:41:19;20.01;79.68
77523;SHT31;66637;-29.628;-49.938;2023-04-15T10:43:52;20.07;79.57
77523;SHT31;66637;-29.628;-49.938;2023-04-15T10:46:39;20.18;79.28
77523;SHT31;66637;-29.628;-49.938;2023-04-15T10:49:16;20.35;79.17
77523;SHT31;66637;-29.628;-49.938;2023-04-15T10:51:58;21.61;75.78
77523;SHT31;66637;-29.628;-49.938;2023-04-15T10:59:58;27.96;53.90
77523;SHT31;66637;-29.628;-49.938;2023-04-15T11:05:52;28.01;53.38
77523;SHT31;66637;-29.628;-49.938;2023-04-15T11:08:56;25.22;61.33
77523;SHT31;66637;-29.628;-49.938;2023-04-15T11:14:45;22.92;69.05
77523;SHT31;66637;-29.628;-49.938;2023-04-15T11:17:26;23.90;67.03
77523;SHT31;66637;-29.628;-49.938;2023-04-15T11:20:01;24.06;64.99
77523;SHT31;66637;-29.628;-49.938;2023-04-15T11:22:34;23.64;66.45
77523;SHT31;66637;-29.628;-49.938;2023-04-15T11:25:06;23.37;67.21
77523;SHT31;66637;-29.628;-49.938;2023-04-15T11:27:37;23.08;68.42
77523;SHT31;66637;-29.628;-49.938;2023-04-15T11:30:19;23.02;69.56
77523;SHT31;66637;-29.628;-49.938;2023-04-15T11:33:04;22.80;69.07
77523;SHT31;66637;-29.628;-49.938;2023-04-15T11:35:36;22.70;69.19
77523;SHT31;66637;-29.628;-49.938;2023-04-15T11:38:09;22.60;69.51
77523;SHT31;66637;-29.628;-49.938;2023-04-15T11:40:43;22.57;69.32
77523;SHT31;66637;-29.628;-49.938;2023-04-15T11:43:15;22.45;69.36
77523;SHT31;66637;-29.628;-49.938;2023-04-15T11:45:57;22.74;69.79
77523;SHT31;66637;-29.628;-49.938;2023-04-15T11:48:34;23.00;68.70
77523;SHT31;66637;-29.628;-49.938;2023-04-15T11:51:06;23.78;66.95
77523;SHT31;66637;-29.628;-49.938;2023-04-15T11:56:22;23.74;65.78
77523;SHT31;66637;-29.628;-49.938;2023-04-15T11:58:58;23.81;67.55
77523;SHT31;66637;-29.628;-49.938;2023-04-15T12:01:36;24.55;63.77
77523;SHT31;66637;-29.628;-49.938;2023-04-15T12:04:16;24.73;62.20
77523;SHT31;66637;-29.628;-49.938;2023-04-15T12:06:53;24.37;62.99
77523;SHT31;66637;-29.628;-49.938;2023-04-15T12:09:24;24.80;62.85
77523;SHT31;66637;-29.628;-49.938;2023-04-15T12:11:58;24.63;62.80
77523;SHT31;66637;-29.628;-49.938;2023-04-15T12:14:33;24.63;61.87
77523;SHT31;66637;-29.628;-49.938;2023-04-15T12:17:05;24.67;61.83
77523;SHT31;66637;-29.628;-49.938;2023-04-15T12:19:39;24.30;62.96
77523;SHT31;66637;-29.628;-49.938;2023-04-15T12:22:20;24.47;61.98
77523;SHT31;66637;-29.628;-49.938;2023-04-15T12:24:54;24.86;61.35
77523;SHT31;66637;-29.628;-49.938;2023-04-15T12:27:26;25.21;61.10
77523;SHT31;66637;-29.628;-49.938;2023-04-15T12:30:05;25.58;58.85
77523;SHT31;66637;-29.628;-49.938;2023-04-15T12:32:45;25.07;59.63
77523;SHT31;66637;-29.628;-49.938;2023-04-15T12:35:16;24.63;60.81
77523;SHT31;66637;-29.628;-49.938;2023-04-15T12:37:50;25.10;58.51
77523;SHT31;66637;-29.628;-49.938;2023-04-15T12:40:21;25.76;58.80
77523;SHT31;66637;-29.628;-49.938;2023-04-15T12:42:52;26.06;57.14
77523;SHT31;66637;-29.628;-49.938;2023-04-15T12:45:26;26.24;55.79
77523;SHT31;66637;-29.628;-49.938;2023-04-15T12:47:58;26.27;56.62
77523;SHT31;66637;-29.628;-49.938;2023-04-15T12:50:30;25.42;58.25
77523;SHT31;66637;-29.628;-49.938;2023-04-15T12:53:02;25.10;59.41
77523;SHT31;66637;-29.628;-49.938;2023-04-15T12:55:34;25.10;58.79
77523;SHT31;66637;-29.628;-49.938;2023-04-15T12:58:05;25.14;59.89
77523;SHT31;66637;-29.628;-49.938;2023-04-15T13:00:37;26.02;57.75
77523;SHT31;66637;-29.628;-49.938;2023-04-15T13:03:10;26.44;56.90
77523;SHT31;66637;-29.628;-49.938;2023-04-15T13:05:41;26.70;54.30
77523;SHT31;66637;-29.628;-49.938;2023-04-15T13:08:14;26.70;54.71
77523;SHT31;66637;-29.628;-49.938;2023-04-15T13:10:47;27.05;54.52
77523;SHT31;66637;-29.628;-49.938;2023-04-15T13:13:18;26.09;57.06
77523;SHT31;66637;-29.628;-49.938;2023-04-15T13:15:49;25.78;58.47
77523;SHT31;66637;-29.628;-49.938;2023-04-15T13:18:20;25.76;60.01
77523;SHT31;66637;-29.628;-49.938;2023-04-15T13:20:54;25.88;59.28
77523;SHT31;66637;-29.628;-49.938;2023-04-15T13:23:26;26.14;57.50
77523;SHT31;66637;-29.628;-49.938;2023-04-15T13:25:58;25.92;57.28
77523;SHT31;66637;-29.628;-49.938;2023-04-15T13:28:28;25.61;58.29
77523;SHT31;66637;-29.628;-49.938;2023-04-15T13:30:59;25.34;58.65
77523;SHT31;66637;-29.628;-49.938;2023-04-15T13:33:31;25.75;57.53
77523;SHT31;66637;-29.628;-49.938;2023-04-15T13:36:01;25.65;58.84
77523;SHT31;66637;-29.628;-49.938;2023-04-15T13:38:32;25.62;60.93
77523;SHT31;66637;-29.628;-49.938;2023-04-15T13:41:04;25.61;61.03
77523;SHT31;66637;-29.628;-49.938;2023-04-15T13:43:51;25.66;61.35
77523;SHT31;66637;-29.628;-49.938;2023-04-15T13:46:27;25.73;61.58
77523;SHT31;66637;-29.628;-49.938;2023-04-15T13:48:57;25.89;61.55
77523;SHT31;66637;-29.628;-49.938;2023-04-15T13:51:27;25.89;59.34
77523;SHT31;66637;-29.628;-49.938;2023-04-15T13:54:01;25.97;59.13
77523;SHT31;66637;-29.628;-49.938;2023-04-15T13:56:32;26.40;58.45
77523;SHT31;66637;-29.628;-49.938;2023-04-15T13:59:02;26.37;58.33
77523;SHT31;66637;-29.628;-49.938;2023-04-15T14:01:34;26.30;59.72
77523;SHT31;66637;-29.628;-49.938;2023-04-15T14:04:08;26.58;58.28
77523;SHT31;66637;-29.628;-49.938;2023-04-15T14:06:40;26.29;59.15
77523;SHT31;66637;-29.628;-49.938;2023-04-15T14:09:11;27.49;57.66
77523;SHT31;66637;-29.628;-49.938;2023-04-15T14:11:42;27.89;56.44
77523;SHT31;66637;-29.628;-49.938;2023-04-15T14:14:12;27.05;57.95
77523;SHT31;66637;-29.628;-49.938;2023-04-15T14:16:43;27.59;57.64
77523;SHT31;66637;-29.628;-49.938;2023-04-15T14:19:15;27.38;58.09
77523;SHT31;66637;-29.628;-49.938;2023-04-15T14:21:50;27.01;58.66
77523;SHT31;66637;-29.628;-49.938;2023-04-15T14:24:21;26.61;58.85
77523;SHT31;66637;-29.628;-49.938;2023-04-15T14:26:53;26.02;62.02
77523;SHT31;66637;-29.628;-49.938;2023-04-15T14:29:24;25.81;61.98
77523;SHT31;66637;-29.628;-49.938;2023-04-15T14:31:55;26.60;60.47
77523;SHT31;66637;-29.628;-49.938;2023-04-15T14:34:39;26.27;61.56
77523;SHT31;66637;-29.628;-49.938;2023-04-15T14:37:10;25.92;62.78
77523;SHT31;66637;-29.628;-49.938;2023-04-15T14:39:40;25.63;63.06
77523;SHT31;66637;-29.628;-49.938;2023-04-15T14:42:12;25.68;63.48
77523;SHT31;66637;-29.628;-49.938;2023-04-15T14:44:43;25.11;64.86
77523;SHT31;66637;-29.628;-49.938;2023-04-15T14:47:15;24.66;65.85
77523;SHT31;66637;-29.628;-49.938;2023-04-15T14:49:48;24.60;67.03
77523;SHT31;66637;-29.628;-49.938;2023-04-15T14:52:19;24.59;67.63
77523;SHT31;66637;-29.628;-49.938;2023-04-15T14:54:50;24.44;67.70
77523;SHT31;66637;-29.628;-49.938;2023-04-15T14:57:20;24.35;68.27
77523;SHT31;66637;-29.628;-49.938;2023-04-15T14:59:51;24.15;69.36
77523;SHT31;66637;-29.628;-49.938;2023-04-15T15:02:26;23.99;69.27
77523;SHT31;66637;-29.628;-49.938;2023-04-15T15:05:09;23.95;69.17
77523;SHT31;66637;-29.628;-49.938;2023-04-15T15:07:41;23.92;69.94
77523;SHT31;66637;-29.628;-49.938;2023-04-15T15:10:12;23.95;69.90
77523;SHT31;66637;-29.628;-49.938;2023-04-15T15:15:38;24.70;67.07
77523;SHT31;66637;-29.628;-49.938;2023-04-15T15:18:10;25.14;65.76
77523;SHT31;66637;-29.628;-49.938;2023-04-15T15:20:42;26.05;64.70
77523;SHT31;66637;-29.628;-49.938;2023-04-15T15:23:14;25.62;65.73
77523;SHT31;66637;-29.628;-49.938;2023-04-15T15:25:45;25.31;66.03
77523;SHT31;66637;-29.628;-49.938;2023-04-15T15:28:16;25.01;67.04
77523;SHT31;66637;-29.628;-49.938;2023-04-15T15:30:47;24.77;67.01
77523;SHT31;66637;-29.628;-49.938;2023-04-15T15:33:19;24.80;67.60
77523;SHT31;66637;-29.628;-49.938;2023-04-15T15:35:50;24.56;67.92
77523;SHT31;66637;-29.628;-49.938;2023-04-15T15:38:22;24.46;67.93
77523;SHT31;66637;-29.628;-49.938;2023-04-15T15:41:00;24.47;69.48
77523;SHT31;66637;-29.628;-49.938;2023-04-15T15:43:31;24.64;68.77
77523;SHT31;66637;-29.628;-49.938;2023-04-15T15:46:02;24.60;67.96